sensor_id;sensor_type;location;lat;lon;timestamp;pressure;altitude;pressure_sealevel;temperature;humidity
7986;BME280;4038;42.612;23.066;2023-10-31T00:02:16;93298.09;;;16.11;50.85
7986;BME280;4038;42.612;23.066;2023-10-31T00:04:41;93292.16;;;16.20;50.51
7986;BME280;4038;42.612;23.066;2023-10-31T00:07:07;93291.88;;;16.36;50.24
7986;BME280;4038;42.612;23.066;2023-10-31T00:09:32;93298.41;;;16.52;49.74
7986;BME280;4038;42.612;23.066;2023-10-31T00:11:58;93294.56;;;16.42;50.23
7986;BME280;4038;42.612;23.066;2023-10-31T00:14:24;93280.53;;;16.53;49.43
7986;BME280;4038;42.612;23.066;2023-10-31T00:16:49;93272.09;;;16.46;49.56
7986;BME280;4038;42.612;23.066;2023-10-31T00:19:14;93278.28;;;15.75;51.48
7986;BME280;4038;42.612;23.066;2023-10-31T00:21:40;93269.22;;;15.74;52.19
7986;BME280;4038;42.612;23.066;2023-10-31T00:24:05;93267.06;;;15.67;52.50
7986;BME280;4038;42.612;23.066;2023-10-31T00:26:31;93263.94;;;15.76;51.73
7986;BME280;4038;42.612;23.066;2023-10-31T00:28:56;93247.19;;;16.00;51.10
7986;BME280;4038;42.612;23.066;2023-10-31T00:31:22;93266.66;;;16.40;50.27
7986;BME280;4038;42.612;23.066;2023-10-31T00:33:47;93268.56;;;16.32;50.44
7986;BME280;4038;42.612;23.066;2023-10-31T00:36:13;93265.66;;;16.69;49.60
7986;BME280;4038;42.612;23.066;2023-10-31T00:38:38;93257.75;;;16.15;50.38
7986;BME280;4038;42.612;23.066;2023-10-31T00:41:03;93259.81;;;15.83;51.48
7986;BME280;4038;42.612;23.066;2023-10-31T00:43:29;93261.72;;;14.94;53.68
7986;BME280;4038;42.612;23.066;2023-10-31T00:45:54;93247.03;;;15.42;51.97
7986;BME280;4038;42.612;23.066;2023-10-31T00:48:20;93253.25;;;15.48;51.81
7986;BME280;4038;42.612;23.066;2023-10-31T00:50:45;93252.03;;;15.81;51.28
7986;BME280;4038;42.612;23.066;2023-10-31T00:53:11;93256.06;;;15.80;50.99
7986;BME280;4038;42.612;23.066;2023-10-31T00:55:36;93229.41;;;15.45;52.03
7986;BME280;4038;42.612;23.066;2023-10-31T00:58:02;93251.19;;;15.49;51.78
7986;BME280;4038;42.612;23.066;2023-10-31T01:00:28;93235.97;;;15.42;51.78
7986;BME280;4038;42.612;23.066;2023-10-31T01:02:53;93244.38;;;15.87;50.86
7986;BME280;4038;42.612;23.066;2023-10-31T01:05:19;93246.13;;;15.15;52.57
7986;BME280;4038;42.612;23.066;2023-10-31T01:07:44;93236.59;;;15.54;51.52
7986;BME280;4038;42.612;23.066;2023-10-31T01:10:10;93247.47;;;15.28;52.09
7986;BME280;4038;42.612;23.066;2023-10-31T01:12:36;93243.38;;;15.15;52.44
7986;BME280;4038;42.612;23.066;2023-10-31T01:15:01;93245.03;;;15.05;52.61
7986;BME280;4038;42.612;23.066;2023-10-31T01:17:27;93233.84;;;15.54;51.31
7986;BME280;4038;42.612;23.066;2023-10-31T01:19:52;93229.94;;;15.94;50.67
7986;BME280;4038;42.612;23.066;2023-10-31T01:22:18;93224.72;;;15.40;51.80
7986;BME280;4038;42.612;23.066;2023-10-31T01:24:43;93217.09;;;15.97;50.32
7986;BME280;4038;42.612;23.066;2023-10-31T01:27:09;93219.53;;;16.00;49.85
7986;BME280;4038;42.612;23.066;2023-10-31T01:29:34;93219.00;;;16.02;49.56
7986;BME280;4038;42.612;23.066;2023-10-31T01:31:59;93212.50;;;15.49;50.69
7986;BME280;4038;42.612;23.066;2023-10-31T01:34:25;93222.53;;;14.28;54.31
7986;BME280;4038;42.612;23.066;2023-10-31T01:36:50;93226.28;;;15.17;51.41
7986;BME280;4038;42.612;23.066;2023-10-31T01:39:16;93225.06;;;14.75;53.24
7986;BME280;4038;42.612;23.066;2023-10-31T01:41:42;93219.06;;;15.83;51.39
7986;BME280;4038;42.612;23.066;2023-10-31T01:44:09;93225.59;;;15.30;53.31
7986;BME280;4038;42.612;23.066;2023-10-31T01:46:34;93225.53;;;15.35;52.66
7986;BME280;4038;42.612;23.066;2023-10-31T01:48:59;93219.13;;;14.47;54.89
7986;BME280;4038;42.612;23.066;2023-10-31T01:51:26;93219.63;;;14.88;55.15
7986;BME280;4038;42.612;23.066;2023-10-31T01:53:53;93210.81;;;15.08;54.03
7986;BME280;4038;42.612;23.066;2023-10-31T01:56:20;93210.81;;;15.08;54.25
7986;BME280;4038;42.612;23.066;2023-10-31T01:58:45;93210.03;;;14.70;54.57
7986;BME280;4038;42.612;23.066;2023-10-31T02:01:13;93212.25;;;13.69;56.93
7986;BME280;4038;42.612;23.066;2023-10-31T02:03:38;93205.81;;;14.88;53.63
7986;BME280;4038;42.612;23.066;2023-10-31T02:06:04;93205.47;;;13.76;56.40
7986;BME280;4038;42.612;23.066;2023-10-31T02:08:30;93214.69;;;14.38;54.58
7986;BME280;4038;42.612;23.066;2023-10-31T02:10:56;93206.34;;;13.89;55.52
7986;BME280;4038;42.612;23.066;2023-10-31T02:13:21;93210.91;;;14.35;54.68
7986;BME280;4038;42.612;23.066;2023-10-31T02:15:47;93204.06;;;14.48;54.62
7986;BME280;4038;42.612;23.066;2023-10-31T02:18:14;93206.13;;;14.36;55.92
7986;BME280;4038;42.612;23.066;2023-10-31T02:20:40;93210.28;;;14.24;55.91
7986;BME280;4038;42.612;23.066;2023-10-31T02:23:06;93208.19;;;15.35;53.76
7986;BME280;4038;42.612;23.066;2023-10-31T02:25:31;93200.28;;;15.07;53.51
7986;BME280;4038;42.612;23.066;2023-10-31T02:27:57;93200.44;;;15.14;53.58
7986;BME280;4038;42.612;23.066;2023-10-31T02:30:23;93210.16;;;14.83;53.97
7986;BME280;4038;42.612;23.066;2023-10-31T02:32:49;93206.06;;;13.93;55.75
7986;BME280;4038;42.612;23.066;2023-10-31T02:35:16;93204.16;;;13.82;56.55
7986;BME280;4038;42.612;23.066;2023-10-31T02:37:42;93210.69;;;13.79;55.70
7986;BME280;4038;42.612;23.066;2023-10-31T02:40:08;93211.44;;;13.80;55.87
7986;BME280;4038;42.612;23.066;2023-10-31T02:42:33;93203.59;;;13.24;56.30
7986;BME280;4038;42.612;23.066;2023-10-31T02:44:59;93197.34;;;13.89;54.01
7986;BME280;4038;42.612;23.066;2023-10-31T02:47:24;93206.09;;;13.22;55.63
7986;BME280;4038;42.612;23.066;2023-10-31T02:49:49;93203.91;;;13.50;55.00
7986;BME280;4038;42.612;23.066;2023-10-31T02:52:15;93194.94;;;12.98;56.53
7986;BME280;4038;42.612;23.066;2023-10-31T02:54:40;93188.63;;;13.49;55.11
7986;BME280;4038;42.612;23.066;2023-10-31T02:57:06;93201.44;;;13.47;55.62
7986;BME280;4038;42.612;23.066;2023-10-31T02:59:31;93201.06;;;13.91;54.67
7986;BME280;4038;42.612;23.066;2023-10-31T03:01:57;93191.47;;;13.98;54.63
7986;BME280;4038;42.612;23.066;2023-10-31T03:04:23;93189.53;;;14.41;54.85
7986;BME280;4038;42.612;23.066;2023-10-31T03:06:49;93194.31;;;14.84;54.64
7986;BME280;4038;42.612;23.066;2023-10-31T03:09:14;93184.63;;;14.96;54.22
7986;BME280;4038;42.612;23.066;2023-10-31T03:11:40;93190.03;;;15.58;50.50
7986;BME280;4038;42.612;23.066;2023-10-31T03:14:05;93179.56;;;15.00;51.65
7986;BME280;4038;42.612;23.066;2023-10-31T03:16:30;93189.19;;;14.51;54.95
7986;BME280;4038;42.612;23.066;2023-10-31T03:18:56;93171.28;;;14.81;55.94
7986;BME280;4038;42.612;23.066;2023-10-31T03:21:21;93168.59;;;15.45;54.92
7986;BME280;4038;42.612;23.066;2023-10-31T03:23:48;93172.16;;;16.62;50.84
7986;BME280;4038;42.612;23.066;2023-10-31T03:26:15;93180.44;;;16.75;49.02
7986;BME280;4038;42.612;23.066;2023-10-31T03:28:41;93169.78;;;16.79;47.96
7986;BME280;4038;42.612;23.066;2023-10-31T03:31:07;93171.16;;;15.62;50.43
7986;BME280;4038;42.612;23.066;2023-10-31T03:33:33;93171.63;;;15.29;52.06
7986;BME280;4038;42.612;23.066;2023-10-31T03:35:58;93174.78;;;15.19;52.31
7986;BME280;4038;42.612;23.066;2023-10-31T03:38:23;93182.81;;;13.88;55.53
7986;BME280;4038;42.612;23.066;2023-10-31T03:40:49;93175.00;;;13.27;56.73
7986;BME280;4038;42.612;23.066;2023-10-31T03:43:14;93168.84;;;13.10;56.65
7986;BME280;4038;42.612;23.066;2023-10-31T03:45:40;93171.16;;;14.50;54.35
7986;BME280;4038;42.612;23.066;2023-10-31T03:48:06;93166.09;;;14.29;53.71
7986;BME280;4038;42.612;23.066;2023-10-31T03:50:31;93159.47;;;14.81;53.38
7986;BME280;4038;42.612;23.066;2023-10-31T03:52:57;93158.09;;;14.50;53.91
7986;BME280;4038;42.612;23.066;2023-10-31T03:55:22;93154.59;;;15.06;54.34
7986;BME280;4038;42.612;23.066;2023-10-31T03:57:47;93147.75;;;15.12;53.27
7986;BME280;4038;42.612;23.066;2023-10-31T04:00:13;93145.22;;;14.34;53.83
7986;BME280;4038;42.612;23.066;2023-10-31T04:02:39;93144.91;;;14.99;52.89
7986;BME280;4038;42.612;23.066;2023-10-31T04:05:05;93145.00;;;15.12;51.91
7986;BME280;4038;42.612;23.066;2023-10-31T04:07:32;93152.94;;;15.35;52.17
7986;BME280;4038;42.612;23.066;2023-10-31T04:09:57;93147.38;;;15.03;52.56
7986;BME280;4038;42.612;23.066;2023-10-31T04:12:22;93149.91;;;15.19;52.92
7986;BME280;4038;42.612;23.066;2023-10-31T04:14:48;93140.94;;;15.64;52.71
7986;BME280;4038;42.612;23.066;2023-10-31T04:17:13;93141.56;;;16.15;51.59
7986;BME280;4038;42.612;23.066;2023-10-31T04:19:38;93135.06;;;16.78;49.26
7986;BME280;4038;42.612;23.066;2023-10-31T04:22:04;93132.72;;;16.43;50.94
7986;BME280;4038;42.612;23.066;2023-10-31T04:24:29;93131.88;;;16.22;51.41
7986;BME280;4038;42.612;23.066;2023-10-31T04:26:56;93129.75;;;16.67;50.36
7986;BME280;4038;42.612;23.066;2023-10-31T04:29:21;93126.63;;;17.52;48.52
7986;BME280;4038;42.612;23.066;2023-10-31T04:31:47;93120.31;;;17.65;47.50
7986;BME280;4038;42.612;23.066;2023-10-31T04:34:13;93140.25;;;18.33;46.97
7986;BME280;4038;42.612;23.066;2023-10-31T04:36:39;93141.69;;;18.26;46.43
7986;BME280;4038;42.612;23.066;2023-10-31T04:39:05;93154.56;;;17.54;47.99
7986;BME280;4038;42.612;23.066;2023-10-31T04:41:30;93156.25;;;18.19;45.03
7986;BME280;4038;42.612;23.066;2023-10-31T04:43:56;93163.50;;;17.60;46.30
7986;BME280;4038;42.612;23.066;2023-10-31T04:46:21;93165.34;;;16.63;45.80
7986;BME280;4038;42.612;23.066;2023-10-31T04:48:47;93157.44;;;14.63;49.60
7986;BME280;4038;42.612;23.066;2023-10-31T04:51:12;93162.06;;;14.30;49.58
7986;BME280;4038;42.612;23.066;2023-10-31T04:53:37;93155.31;;;13.12;53.11
7986;BME280;4038;42.612;23.066;2023-10-31T04:56:04;93155.16;;;13.94;51.25
7986;BME280;4038;42.612;23.066;2023-10-31T04:58:29;93152.53;;;12.19;54.87
7986;BME280;4038;42.612;23.066;2023-10-31T05:00:54;93155.28;;;12.19;55.98
7986;BME280;4038;42.612;23.066;2023-10-31T05:03:20;93150.44;;;12.41;54.82
7986;BME280;4038;42.612;23.066;2023-10-31T05:05:45;93148.56;;;13.78;56.55
7986;BME280;4038;42.612;23.066;2023-10-31T05:08:11;93164.53;;;14.77;52.77
7986;BME280;4038;42.612;23.066;2023-10-31T05:10:37;93151.53;;;14.29;52.19
7986;BME280;4038;42.612;23.066;2023-10-31T05:13:02;93166.31;;;13.83;52.12
7986;BME280;4038;42.612;23.066;2023-10-31T05:15:28;93174.06;;;13.24;54.79
7986;BME280;4038;42.612;23.066;2023-10-31T05:17:54;93165.44;;;13.34;53.34
7986;BME280;4038;42.612;23.066;2023-10-31T05:20:19;93170.41;;;13.71;52.45
7986;BME280;4038;42.612;23.066;2023-10-31T05:22:45;93170.66;;;12.49;55.65
7986;BME280;4038;42.612;23.066;2023-10-31T05:25:11;93166.38;;;13.06;56.05
7986;BME280;4038;42.612;23.066;2023-10-31T05:27:37;93169.41;;;13.44;55.33
7986;BME280;4038;42.612;23.066;2023-10-31T05:30:03;93163.81;;;14.76;51.33
7986;BME280;4038;42.612;23.066;2023-10-31T05:32:28;93169.03;;;15.68;48.30
7986;BME280;4038;42.612;23.066;2023-10-31T05:34:53;93166.53;;;15.83;47.14
7986;BME280;4038;42.612;23.066;2023-10-31T05:37:19;93168.94;;;16.58;45.93
7986;BME280;4038;42.612;23.066;2023-10-31T05:39:44;93167.16;;;17.55;44.22
7986;BME280;4038;42.612;23.066;2023-10-31T05:42:10;93156.31;;;18.84;41.28
7986;BME280;4038;42.612;23.066;2023-10-31T05:44:35;93172.94;;;19.20;39.53
7986;BME280;4038;42.612;23.066;2023-10-31T05:47:01;93167.03;;;20.05;38.39
7986;BME280;4038;42.612;23.066;2023-10-31T05:49:26;93170.06;;;21.55;36.26
7986;BME280;4038;42.612;23.066;2023-10-31T05:51:52;93188.38;;;21.81;35.36
7986;BME280;4038;42.612;23.066;2023-10-31T05:54:17;93189.31;;;21.76;34.97
7986;BME280;4038;42.612;23.066;2023-10-31T05:56:43;93186.16;;;21.39;35.57
7986;BME280;4038;42.612;23.066;2023-10-31T05:59:10;93193.44;;;21.75;35.48
7986;BME280;4038;42.612;23.066;2023-10-31T06:01:35;93191.00;;;23.64;32.47
7986;BME280;4038;42.612;23.066;2023-10-31T06:04:01;93197.91;;;23.63;32.10
7986;BME280;4038;42.612;23.066;2023-10-31T06:06:26;93197.09;;;24.61;30.87
7986;BME280;4038;42.612;23.066;2023-10-31T06:08:52;93195.13;;;24.44;31.48
7986;BME280;4038;42.612;23.066;2023-10-31T06:11:17;93194.81;;;23.08;32.83
7986;BME280;4038;42.612;23.066;2023-10-31T06:13:43;93198.28;;;23.16;32.71
7986;BME280;4038;42.612;23.066;2023-10-31T06:16:08;93190.72;;;25.16;30.05
7986;BME280;4038;42.612;23.066;2023-10-31T06:18:33;93196.59;;;23.64;31.75
7986;BME280;4038;42.612;23.066;2023-10-31T06:21:00;93196.31;;;22.42;33.76
7986;BME280;4038;42.612;23.066;2023-10-31T06:23:25;93203.03;;;22.88;32.83
7986;BME280;4038;42.612;23.066;2023-10-31T06:25:50;93190.38;;;23.83;31.95
7986;BME280;4038;42.612;23.066;2023-10-31T06:28:16;93189.22;;;24.49;30.96
7986;BME280;4038;42.612;23.066;2023-10-31T06:30:41;93186.00;;;23.90;32.07
7986;BME280;4038;42.612;23.066;2023-10-31T06:33:07;93190.00;;;24.60;31.23
7986;BME280;4038;42.612;23.066;2023-10-31T06:35:33;93196.34;;;25.06;30.68
7986;BME280;4038;42.612;23.066;2023-10-31T06:37:59;93191.97;;;26.11;29.54
7986;BME280;4038;42.612;23.066;2023-10-31T06:40:25;93195.16;;;25.48;30.69
7986;BME280;4038;42.612;23.066;2023-10-31T06:42:51;93192.41;;;24.82;32.26
7986;BME280;4038;42.612;23.066;2023-10-31T06:45:16;93194.06;;;26.01;30.38
7986;BME280;4038;42.612;23.066;2023-10-31T06:47:42;93174.13;;;25.87;30.53
7986;BME280;4038;42.612;23.066;2023-10-31T06:50:07;93189.59;;;24.63;32.75
7986;BME280;4038;42.612;23.066;2023-10-31T06:52:33;93198.59;;;26.16;30.51
7986;BME280;4038;42.612;23.066;2023-10-31T06:54:58;93190.88;;;25.56;30.98
7986;BME280;4038;42.612;23.066;2023-10-31T06:57:24;93195.16;;;25.38;32.20
7986;BME280;4038;42.612;23.066;2023-10-31T06:59:50;93193.44;;;26.62;29.87
7986;BME280;4038;42.612;23.066;2023-10-31T07:02:15;93188.44;;;26.51;30.15
7986;BME280;4038;42.612;23.066;2023-10-31T07:04:40;93184.66;;;25.10;32.09
7986;BME280;4038;42.612;23.066;2023-10-31T07:07:06;93181.56;;;24.96;32.10
7986;BME280;4038;42.612;23.066;2023-10-31T07:09:31;93179.97;;;25.60;31.95
7986;BME280;4038;42.612;23.066;2023-10-31T07:11:57;93164.69;;;25.92;30.69
7986;BME280;4038;42.612;23.066;2023-10-31T07:14:28;93168.59;;;26.90;30.12
7986;BME280;4038;42.612;23.066;2023-10-31T07:16:56;93168.09;;;26.41;30.23
7986;BME280;4038;42.612;23.066;2023-10-31T07:19:21;93178.41;;;26.48;29.99
7986;BME280;4038;42.612;23.066;2023-10-31T07:21:47;93178.16;;;25.75;31.33
7986;BME280;4038;42.612;23.066;2023-10-31T07:24:12;93165.75;;;25.01;32.47
7986;BME280;4038;42.612;23.066;2023-10-31T07:26:37;93172.41;;;25.24;31.81
7986;BME280;4038;42.612;23.066;2023-10-31T07:29:03;93158.22;;;25.32;32.08
7986;BME280;4038;42.612;23.066;2023-10-31T07:31:28;93155.78;;;24.61;32.99
7986;BME280;4038;42.612;23.066;2023-10-31T07:33:54;93162.91;;;24.81;32.97
7986;BME280;4038;42.612;23.066;2023-10-31T07:36:19;93171.22;;;25.08;32.45
7986;BME280;4038;42.612;23.066;2023-10-31T07:38:45;93163.09;;;25.70;31.79
7986;BME280;4038;42.612;23.066;2023-10-31T07:41:10;93167.97;;;25.12;32.31
7986;BME280;4038;42.612;23.066;2023-10-31T07:43:35;93159.72;;;25.04;32.62
7986;BME280;4038;42.612;23.066;2023-10-31T07:46:01;93163.69;;;24.92;32.88
7986;BME280;4038;42.612;23.066;2023-10-31T07:48:26;93156.34;;;24.60;33.24
7986;BME280;4038;42.612;23.066;2023-10-31T07:50:52;93155.34;;;24.74;33.27
7986;BME280;4038;42.612;23.066;2023-10-31T07:53:17;93156.91;;;25.14;32.36
7986;BME280;4038;42.612;23.066;2023-10-31T07:55:43;93157.81;;;26.15;31.27
7986;BME280;4038;42.612;23.066;2023-10-31T07:58:08;93155.72;;;26.56;30.61
7986;BME280;4038;42.612;23.066;2023-10-31T08:00:35;93138.69;;;26.23;31.31
7986;BME280;4038;42.612;23.066;2023-10-31T08:03:01;93147.44;;;26.27;31.25
7986;BME280;4038;42.612;23.066;2023-10-31T08:05:27;93148.03;;;26.25;30.85
7986;BME280;4038;42.612;23.066;2023-10-31T08:07:52;93132.91;;;26.82;29.84
7986;BME280;4038;42.612;23.066;2023-10-31T08:10:17;93130.59;;;26.79;29.85
7986;BME280;4038;42.612;23.066;2023-10-31T08:12:43;93133.81;;;27.06;29.97
7986;BME280;4038;42.612;23.066;2023-10-31T08:15:08;93130.50;;;26.89;29.93
7986;BME280;4038;42.612;23.066;2023-10-31T08:17:36;93134.97;;;26.92;30.58
7986;BME280;4038;42.612;23.066;2023-10-31T08:20:02;93118.28;;;26.53;30.74
7986;BME280;4038;42.612;23.066;2023-10-31T08:22:30;93121.91;;;27.50;29.66
7986;BME280;4038;42.612;23.066;2023-10-31T08:24:56;93116.44;;;27.10;30.27
7986;BME280;4038;42.612;23.066;2023-10-31T08:27:21;93122.72;;;27.41;29.12
7986;BME280;4038;42.612;23.066;2023-10-31T08:29:47;93117.34;;;26.91;29.69
7986;BME280;4038;42.612;23.066;2023-10-31T08:32:12;93112.06;;;25.83;30.43
7986;BME280;4038;42.612;23.066;2023-10-31T08:34:37;93102.47;;;26.27;30.29
7986;BME280;4038;42.612;23.066;2023-10-31T08:37:03;93097.03;;;26.93;29.31
7986;BME280;4038;42.612;23.066;2023-10-31T08:39:28;93105.59;;;27.16;29.38
7986;BME280;4038;42.612;23.066;2023-10-31T08:41:56;93095.63;;;27.69;28.54
7986;BME280;4038;42.612;23.066;2023-10-31T08:44:22;93083.41;;;26.68;29.37
7986;BME280;4038;42.612;23.066;2023-10-31T08:46:47;93084.41;;;25.89;30.84
7986;BME280;4038;42.612;23.066;2023-10-31T08:49:14;93101.59;;;27.31;29.38
7986;BME280;4038;42.612;23.066;2023-10-31T08:51:40;93092.34;;;27.07;28.58
7986;BME280;4038;42.612;23.066;2023-10-31T08:54:06;93070.31;;;26.30;29.53
7986;BME280;4038;42.612;23.066;2023-10-31T08:56:32;93071.50;;;26.79;29.63
7986;BME280;4038;42.612;23.066;2023-10-31T08:58:57;93075.81;;;26.28;29.47
7986;BME280;4038;42.612;23.066;2023-10-31T09:01:23;93066.34;;;26.23;29.50
7986;BME280;4038;42.612;23.066;2023-10-31T09:03:48;93056.09;;;25.66;29.97
7986;BME280;4038;42.612;23.066;2023-10-31T09:06:14;93069.69;;;25.70;30.48
7986;BME280;4038;42.612;23.066;2023-10-31T09:08:39;93067.97;;;26.78;28.56
7986;BME280;4038;42.612;23.066;2023-10-31T09:11:05;93064.94;;;26.13;29.66
7986;BME280;4038;42.612;23.066;2023-10-31T09:13:31;93059.50;;;26.36;29.58
7986;BME280;4038;42.612;23.066;2023-10-31T09:16:00;93050.84;;;27.40;28.62
7986;BME280;4038;42.612;23.066;2023-10-31T09:18:25;93048.06;;;26.86;28.20
7986;BME280;4038;42.612;23.066;2023-10-31T09:20:51;93046.22;;;27.12;28.40
7986;BME280;4038;42.612;23.066;2023-10-31T09:23:16;93037.84;;;27.02;27.97
7986;BME280;4038;42.612;23.066;2023-10-31T09:25:45;93039.66;;;27.31;27.73
7986;BME280;4038;42.612;23.066;2023-10-31T09:28:10;93033.81;;;27.38;27.70
7986;BME280;4038;42.612;23.066;2023-10-31T09:30:36;93024.09;;;27.18;27.87
7986;BME280;4038;42.612;23.066;2023-10-31T09:33:01;93030.75;;;27.79;27.98
7986;BME280;4038;42.612;23.066;2023-10-31T09:35:27;93032.75;;;27.10;27.91
7986;BME280;4038;42.612;23.066;2023-10-31T09:37:53;93040.34;;;27.08;27.74
7986;BME280;4038;42.612;23.066;2023-10-31T09:40:19;93013.03;;;27.43;27.49
7986;BME280;4038;42.612;23.066;2023-10-31T09:42:45;93013.97;;;26.70;28.24
7986;BME280;4038;42.612;23.066;2023-10-31T09:45:11;93007.91;;;28.56;25.86
7986;BME280;4038;42.612;23.066;2023-10-31T09:47:37;93002.19;;;27.96;26.55
7986;BME280;4038;42.612;23.066;2023-10-31T09:50:03;93007.25;;;26.97;27.03
7986;BME280;4038;42.612;23.066;2023-10-31T09:52:29;93000.88;;;26.42;27.26
7986;BME280;4038;42.612;23.066;2023-10-31T09:54:54;92988.94;;;26.32;28.08
7986;BME280;4038;42.612;23.066;2023-10-31T09:57:21;92987.75;;;26.89;26.78
7986;BME280;4038;42.612;23.066;2023-10-31T09:59:46;92955.75;;;26.40;27.75
7986;BME280;4038;42.612;23.066;2023-10-31T10:02:12;92969.81;;;25.88;28.37
7986;BME280;4038;42.612;23.066;2023-10-31T10:04:37;92971.00;;;26.58;27.81
7986;BME280;4038;42.612;23.066;2023-10-31T10:07:04;92965.59;;;26.51;27.46
7986;BME280;4038;42.612;23.066;2023-10-31T10:09:30;92955.84;;;27.41;26.81
7986;BME280;4038;42.612;23.066;2023-10-31T10:11:58;92950.44;;;27.22;26.77
7986;BME280;4038;42.612;23.066;2023-10-31T10:14:24;92957.72;;;26.70;27.01
7986;BME280;4038;42.612;23.066;2023-10-31T10:16:50;92950.31;;;26.54;25.56
7986;BME280;4038;42.612;23.066;2023-10-31T10:19:17;92934.84;;;27.09;25.71
7986;BME280;4038;42.612;23.066;2023-10-31T10:24:21;92931.59;;;28.06;24.69
7986;BME280;4038;42.612;23.066;2023-10-31T10:26:47;92938.19;;;26.84;25.61
7986;BME280;4038;42.612;23.066;2023-10-31T10:29:12;92912.03;;;27.49;25.21
7986;BME280;4038;42.612;23.066;2023-10-31T10:31:38;92907.81;;;26.38;25.54
7986;BME280;4038;42.612;23.066;2023-10-31T10:34:04;92899.63;;;25.57;26.16
7986;BME280;4038;42.612;23.066;2023-10-31T10:36:32;92905.41;;;26.77;25.63
7986;BME280;4038;42.612;23.066;2023-10-31T10:38:59;92906.13;;;26.44;25.44
7986;BME280;4038;42.612;23.066;2023-10-31T10:41:25;92897.47;;;25.98;25.97
7986;BME280;4038;42.612;23.066;2023-10-31T10:43:56;92896.84;;;25.78;26.07
7986;BME280;4038;42.612;23.066;2023-10-31T10:46:25;92899.16;;;25.60;27.05
7986;BME280;4038;42.612;23.066;2023-10-31T10:48:55;92887.63;;;26.30;26.79
7986;BME280;4038;42.612;23.066;2023-10-31T10:51:28;92881.88;;;25.54;27.29
7986;BME280;4038;42.612;23.066;2023-10-31T10:54:05;92888.06;;;26.48;26.49
7986;BME280;4038;42.612;23.066;2023-10-31T10:56:38;92879.59;;;26.15;27.11
7986;BME280;4038;42.612;23.066;2023-10-31T10:59:14;92860.22;;;25.76;26.60
7986;BME280;4038;42.612;23.066;2023-10-31T11:01:41;92868.81;;;25.38;27.22
7986;BME280;4038;42.612;23.066;2023-10-31T11:04:08;92867.41;;;25.58;27.08
7986;BME280;4038;42.612;23.066;2023-10-31T11:06:34;92838.94;;;25.73;27.17
7986;BME280;4038;42.612;23.066;2023-10-31T11:09:00;92841.31;;;24.65;27.82
7986;BME280;4038;42.612;23.066;2023-10-31T11:11:26;92846.03;;;25.74;27.62
7986;BME280;4038;42.612;23.066;2023-10-31T11:13:52;92839.50;;;25.50;27.19
7986;BME280;4038;42.612;23.066;2023-10-31T11:16:33;92832.81;;;26.19;26.12
7986;BME280;4038;42.612;23.066;2023-10-31T11:19:02;92833.50;;;25.65;27.02
7986;BME280;4038;42.612;23.066;2023-10-31T11:21:28;92823.16;;;25.89;26.67
7986;BME280;4038;42.612;23.066;2023-10-31T11:23:58;92822.13;;;26.06;26.77
7986;BME280;4038;42.612;23.066;2023-10-31T11:26:29;92817.47;;;25.99;26.55
7986;BME280;4038;42.612;23.066;2023-10-31T11:29:07;92812.81;;;26.58;25.73
7986;BME280;4038;42.612;23.066;2023-10-31T11:31:34;92813.34;;;26.33;26.12
7986;BME280;4038;42.612;23.066;2023-10-31T11:34:02;92808.38;;;25.67;26.41
7986;BME280;4038;42.612;23.066;2023-10-31T11:36:31;92792.94;;;26.11;26.14
7986;BME280;4038;42.612;23.066;2023-10-31T11:39:17;92802.69;;;25.98;25.84
7986;BME280;4038;42.612;23.066;2023-10-31T11:41:50;92793.34;;;25.84;26.63
7986;BME280;4038;42.612;23.066;2023-10-31T11:44:17;92793.13;;;25.92;26.26
7986;BME280;4038;42.612;23.066;2023-10-31T11:46:42;92797.19;;;25.37;26.57
7986;BME280;4038;42.612;23.066;2023-10-31T11:49:08;92784.91;;;25.42;26.02
7986;BME280;4038;42.612;23.066;2023-10-31T11:51:34;92785.97;;;25.79;26.04
7986;BME280;4038;42.612;23.066;2023-10-31T11:54:01;92772.06;;;25.81;26.43
7986;BME280;4038;42.612;23.066;2023-10-31T11:56:27;92778.88;;;25.57;26.62
7986;BME280;4038;42.612;23.066;2023-10-31T11:59:02;92775.66;;;27.29;24.11
7986;BME280;4038;42.612;23.066;2023-10-31T12:01:27;92783.13;;;27.36;23.85
7986;BME280;4038;42.612;23.066;2023-10-31T12:03:53;92784.13;;;28.26;22.98
7986;BME280;4038;42.612;23.066;2023-10-31T12:06:19;92777.00;;;28.00;23.56
7986;BME280;4038;42.612;23.066;2023-10-31T12:08:47;92773.91;;;28.97;22.69
7986;BME280;4038;42.612;23.066;2023-10-31T12:11:14;92760.97;;;27.19;24.30
7986;BME280;4038;42.612;23.066;2023-10-31T12:13:50;92762.66;;;26.42;25.17
7986;BME280;4038;42.612;23.066;2023-10-31T12:16:16;92760.00;;;26.79;25.49
7986;BME280;4038;42.612;23.066;2023-10-31T12:18:41;92748.25;;;26.71;25.33
7986;BME280;4038;42.612;23.066;2023-10-31T12:21:07;92744.72;;;26.71;25.85
7986;BME280;4038;42.612;23.066;2023-10-31T12:23:34;92744.72;;;26.71;25.57
7986;BME280;4038;42.612;23.066;2023-10-31T12:25:59;92743.22;;;27.16;25.44
7986;BME280;4038;42.612;23.066;2023-10-31T12:28:25;92729.03;;;26.68;26.17
7986;BME280;4038;42.612;23.066;2023-10-31T12:30:52;92727.44;;;26.88;26.39
7986;BME280;4038;42.612;23.066;2023-10-31T12:33:25;92731.97;;;26.81;25.88
7986;BME280;4038;42.612;23.066;2023-10-31T12:35:58;92717.88;;;25.90;25.55
7986;BME280;4038;42.612;23.066;2023-10-31T12:38:25;92730.47;;;25.89;26.50
7986;BME280;4038;42.612;23.066;2023-10-31T12:40:51;92735.91;;;26.65;25.31
7986;BME280;4038;42.612;23.066;2023-10-31T12:43:17;92747.34;;;27.50;24.23
7986;BME280;4038;42.612;23.066;2023-10-31T12:45:42;92731.53;;;27.08;23.82
7986;BME280;4038;42.612;23.066;2023-10-31T12:48:09;92737.84;;;26.51;24.65
7986;BME280;4038;42.612;23.066;2023-10-31T12:50:36;92729.06;;;28.00;23.79
7986;BME280;4038;42.612;23.066;2023-10-31T12:53:09;92734.47;;;27.71;24.01
7986;BME280;4038;42.612;23.066;2023-10-31T12:55:41;92725.59;;;27.28;24.26
7986;BME280;4038;42.612;23.066;2023-10-31T12:58:08;92720.47;;;27.36;24.40
7986;BME280;4038;42.612;23.066;2023-10-31T13:00:40;92727.34;;;26.74;25.02
7986;BME280;4038;42.612;23.066;2023-10-31T13:03:08;92727.16;;;27.42;24.27
7986;BME280;4038;42.612;23.066;2023-10-31T13:05:34;92711.47;;;27.51;23.80
7986;BME280;4038;42.612;23.066;2023-10-31T13:08:00;92723.28;;;28.35;23.09